Aviation Digital Data Service (ADDS)

Output produced by METARs form (0401 UTC 11 December 2017)
found at http://www.aviationweather.gov/adds/metars/
 
KPHL 102320Z 1100/1206 24009KT P6SM FEW050 BKN100 
     FM111300 26006KT P6SM FEW150 
     FM120000 19004KT P6SM SCT090